Time;durP1;ratioP1;P1;durP2;ratioP2;P2;SDS_P1;SDS_P2;PMS_P1;PMS_P2;Temp;Humidity;BMP_temperature;BMP_pressure;BME280_temperature;BME280_humidity;BME280_pressure;Samples;Min_cycle;Max_cycle;Signal;HPM_P1;HPM_P2
2023/06/16 00:01:57;;;;;;;7.90;1.67;;;;;;;27.64;29.22;101349.97;4987379;28;20093;-74
2023/06/16 00:04:27;;;;;;;4.20;1.33;;;;;;;27.65;30.76;101351.72;4987646;28;20054;-75
2023/06/16 00:06:58;;;;;;;6.72;1.70;;;;;;;27.66;29.18;101350.78;4986702;28;20484;-75
2023/06/16 00:09:27;;;;;;;5.10;1.88;;;;;;;27.67;29.48;101351.66;4987184;28;20148;-76
2023/06/16 00:11:57;;;;;;;3.65;1.38;;;;;;;27.70;29.37;101349.78;4986705;28;20117;-76
2023/06/16 00:14:25;;;;;;;4.35;1.45;;;;;;;27.72;27.91;101347.94;4984661;28;20684;-75
2023/06/16 00:16:57;;;;;;;10.45;1.60;;;;;;;27.71;28.88;101345.31;4983014;28;20046;-76
2023/06/16 00:19:29;;;;;;;4.65;1.33;;;;;;;27.66;28.64;101349.94;4986775;28;20043;-74
2023/06/16 00:21:59;;;;;;;6.88;1.75;;;;;;;27.54;28.12;101337.91;4981521;28;20066;-76
2023/06/16 00:24:28;;;;;;;5.93;1.73;;;;;;;27.49;28.43;101338.06;4976932;28;20057;-76
2023/06/16 00:26:57;;;;;;;4.38;1.65;;;;;;;27.52;28.00;101345.06;4981621;28;20132;-77
2023/06/16 00:29:25;;;;;;;4.32;1.70;;;;;;;27.52;29.17;101335.28;4984355;28;20054;-75
2023/06/16 00:31:56;;;;;;;5.72;1.52;;;;;;;27.55;27.37;101336.97;4986118;28;20054;-76
2023/06/16 00:34:24;;;;;;;8.30;1.63;;;;;;;27.56;27.98;101333.41;4984498;28;20056;-76
2023/06/16 00:36:53;;;;;;;3.58;1.33;;;;;;;27.49;26.27;101331.88;4980815;28;20050;-76
2023/06/16 00:39:22;;;;;;;8.13;1.85;;;;;;;27.47;28.34;101331.06;4984939;28;20046;-76
2023/06/16 00:41:50;;;;;;;5.55;1.67;;;;;;;27.42;27.92;101323.22;4985907;28;20062;-76
2023/06/16 00:44:19;;;;;;;4.25;1.50;;;;;;;27.52;27.41;101337.09;4982870;28;20495;-75
2023/06/16 00:46:48;;;;;;;4.63;1.15;;;;;;;27.56;27.13;101339.59;4984511;28;20506;-76
2023/06/16 00:49:18;;;;;;;7.28;1.55;;;;;;;27.56;27.43;101336.06;4985598;28;20046;-77
2023/06/16 00:51:48;;;;;;;5.72;1.38;;;;;;;27.50;28.51;101330.94;4987536;28;20058;-76
2023/06/16 00:54:18;;;;;;;5.82;1.58;;;;;;;27.43;27.98;101335.59;4990334;28;20046;-77
2023/06/16 00:56:47;;;;;;;5.72;1.60;;;;;;;27.44;30.14;101332.03;4988402;28;20050;-75
2023/06/16 00:59:16;;;;;;;7.53;1.80;;;;;;;27.43;29.59;101338.25;4990171;28;20049;-76
2023/06/16 01:01:48;;;;;;;3.83;1.52;;;;;;;27.42;28.34;101328.53;4981603;28;20054;-76
2023/06/16 01:04:21;;;;;;;4.60;1.58;;;;;;;27.41;27.94;101329.44;4983693;28;20042;-75
2023/06/16 01:06:57;;;;;;;5.93;3.42;;;;;;;27.39;27.73;101325.09;4993116;28;20038;-77
2023/06/16 01:09:35;;;;;;;5.63;1.45;;;;;;;27.40;30.14;101326.81;4986941;28;20108;-76
2023/06/16 01:12:13;;;;;;;6.47;2.05;;;;;;;27.38;30.36;101329.53;4986473;28;20062;-76
2023/06/16 01:14:52;;;;;;;4.55;1.63;;;;;;;27.33;28.18;101331.50;4988814;28;20073;-77
2023/06/16 01:17:24;;;;;;;3.97;1.38;;;;;;;27.35;30.23;101329.63;4986421;28;20586;-76
2023/06/16 01:20:07;;;;;;;4.72;1.40;;;;;;;27.24;28.29;101321.16;4989604;28;20104;-76
2023/06/16 01:22:53;;;;;;;6.45;1.70;;;;;;;27.17;28.90;101321.28;4988364;28;20089;-76
2023/06/16 01:25:25;;;;;;;5.70;1.80;;;;;;;27.07;29.89;101324.25;4984744;28;20053;-77
2023/06/16 01:27:55;;;;;;;;;;;;;;;26.99;29.24;101323.66;4989598;28;20086;-74
2023/06/16 01:30:26;;;;;;;8.10;2.10;;;;;;;26.93;29.50;101317.56;4988400;28;19936;-76
2023/06/16 01:32:57;;;;;;;6.50;1.50;;;;;;;26.93;28.91;101325.53;4986737;28;20118;-76
2023/06/16 01:35:26;;;;;;;7.03;1.67;;;;;;;26.91;28.88;101324.72;4987604;28;20054;-75
2023/06/16 01:37:57;;;;;;;4.90;1.52;;;;;;;26.90;27.76;101322.13;4987701;28;20654;-76
2023/06/16 01:40:32;;;;;;;6.32;1.30;;;;;;;26.89;28.02;101320.38;4989916;28;20053;-76
2023/06/16 01:43:02;;;;;;;2.88;1.10;;;;;;;26.89;28.71;101315.06;4988655;28;20100;-76
2023/06/16 01:45:32;;;;;;;6.93;1.42;;;;;;;26.83;29.18;101316.13;4987831;28;20492;-77
2023/06/16 01:48:04;;;;;;;6.47;1.60;;;;;;;26.82;29.78;101313.50;4988894;28;20050;-76
2023/06/16 01:50:33;;;;;;;5.15;1.33;;;;;;;26.80;29.04;101313.56;4993522;28;20046;-76
2023/06/16 01:53:02;;;;;;;4.88;1.38;;;;;;;26.78;30.30;101312.75;4990501;28;20097;-77
2023/06/16 01:55:32;;;;;;;6.07;1.52;;;;;;;26.78;31.96;101328.66;4999354;28;20273;-75
2023/06/16 01:58:00;;;;;;;6.85;1.50;;;;;;;26.72;30.89;101326.19;4992010;28;20055;-76
2023/06/16 02:00:41;;;;;;;4.20;1.60;;;;;;;26.59;30.77;101324.78;4994778;28;20050;-75
2023/06/16 02:03:17;;;;;;;3.00;1.30;;;;;;;26.45;30.39;101331.31;5003029;28;20188;-77
2023/06/16 02:05:49;;;;;;;6.40;1.73;;;;;;;26.38;30.74;101329.72;4998483;28;20074;-77
2023/06/16 02:08:19;;;;;;;4.75;1.52;;;;;;;26.30;30.00;101337.91;4999184;28;20142;-77
2023/06/16 02:10:50;;;;;;;4.80;1.40;;;;;;;26.23;29.12;101335.47;4991351;28;20046;-76
2023/06/16 02:13:18;;;;;;;3.72;1.20;;;;;;;26.17;29.00;101336.50;4988380;28;20093;-76
2023/06/16 02:15:47;;;;;;;4.95;1.38;;;;;;;26.09;29.13;101339.34;4986875;28;20058;-76
2023/06/16 02:18:16;;;;;;;3.60;1.35;;;;;;;26.05;29.35;101340.34;4988540;28;20069;-75
2023/06/16 02:20:46;;;;;;;7.10;2.08;;;;;;;25.99;29.58;101336.97;4982351;28;20132;-78
2023/06/16 02:23:15;;;;;;;6.07;1.38;;;;;;;25.94;29.52;101338.88;4991087;28;20053;-77
2023/06/16 02:25:43;;;;;;;6.60;1.90;;;;;;;25.88;30.52;101339.88;4981542;28;20047;-75
2023/06/16 02:28:16;;;;;;;4.95;1.50;;;;;;;25.80;29.99;101341.84;4982274;28;20550;-76
2023/06/16 02:30:45;;;;;;;5.22;2.70;;;;;;;25.74;30.93;101341.97;4991466;28;20056;-75
2023/06/16 02:33:14;;;;;;;6.28;1.40;;;;;;;25.67;31.37;101352.72;4982423;28;20053;-76
2023/06/16 02:35:42;;;;;;;7.00;2.00;;;;;;;25.62;31.51;101353.75;4989097;28;20072;-76
2023/06/16 02:38:11;;;;;;;5.28;1.40;;;;;;;25.57;31.40;101347.69;4987486;28;20491;-77
2023/06/16 02:40:39;;;;;;;3.90;1.50;;;;;;;25.49;31.05;101359.34;4991360;28;20179;-76
2023/06/16 02:43:08;;;;;;;4.70;1.33;;;;;;;25.42;31.59;101362.13;4985990;28;20054;-76
2023/06/16 02:45:39;;;;;;;5.35;1.92;;;;;;;25.33;31.16;101357.06;4983495;28;20054;-77
2023/06/16 02:48:08;;;;;;;4.35;1.17;;;;;;;25.23;31.07;101366.97;4986669;28;20547;-77
2023/06/16 02:50:36;;;;;;;4.13;1.45;;;;;;;25.14;31.80;101365.38;4983873;28;20054;-76
2023/06/16 02:53:08;;;;;;;5.88;1.40;;;;;;;25.05;32.48;101371.72;4990116;28;20050;-75
2023/06/16 02:55:38;;;;;;;5.28;1.48;;;;;;;24.92;31.32;101375.53;4986551;28;20128;-77
2023/06/16 02:58:06;;;;;;;4.43;1.35;;;;;;;24.81;32.01;101383.69;4987966;28;20751;-75
2023/06/16 03:00:37;;;;;;;7.38;1.70;;;;;;;24.70;32.07;101385.69;4983972;28;20142;-77
2023/06/16 03:03:09;;;;;;;6.63;1.63;;;;;;;24.63;32.72;101397.28;4983563;28;20043;-78
2023/06/16 03:05:37;;;;;;;;;;;;;;;24.50;32.49;101380.75;4983082;28;20049;-76
2023/06/16 03:08:06;;;;;;;3.13;1.40;;;;;;;24.51;32.48;101400.13;4986926;28;19999;-77
2023/06/16 03:10:34;;;;;;;4.97;1.50;;;;;;;24.44;32.85;101400.22;4986039;28;20165;-75
2023/06/16 03:13:03;;;;;;;5.72;1.60;;;;;;;24.38;33.30;101395.03;4985432;28;20046;-77
2023/06/16 03:15:32;;;;;;;5.32;1.70;;;;;;;24.28;33.08;101398.75;4986966;28;20057;-75
2023/06/16 03:18:02;;;;;;;4.20;1.42;;;;;;;24.22;34.02;101399.72;4985255;28;20053;-76
2023/06/16 03:20:31;;;;;;;4.45;1.48;;;;;;;24.16;34.29;101398.94;4987478;28;20042;-75
2023/06/16 03:22:59;;;;;;;7.88;1.58;;;;;;;24.07;34.61;101401.75;4986336;28;20051;-77
2023/06/16 03:25:30;;;;;;;3.95;1.27;;;;;;;23.95;34.15;101400.19;4987189;28;20046;-75
2023/06/16 03:27:59;;;;;;;5.20;1.70;;;;;;;23.80;35.71;101398.63;4986855;28;20183;-76
2023/06/16 03:30:27;;;;;;;7.68;1.50;;;;;;;23.68;36.04;101402.28;4984779;28;20051;-76
2023/06/16 03:32:56;;;;;;;5.07;1.30;;;;;;;23.51;35.74;101391.13;4988040;28;20488;-75
2023/06/16 03:35:29;;;;;;;5.80;1.58;;;;;;;23.38;36.42;101391.25;4985752;28;20053;-76
2023/06/16 03:37:59;;;;;;;;;;;;;;;23.28;36.18;101394.06;4985486;28;20479;-76
2023/06/16 03:40:27;;;;;;;6.32;2.00;;;;;;;23.17;36.07;101402.97;4985248;28;19956;-76
2023/06/16 03:42:56;;;;;;;6.20;1.35;;;;;;;23.06;36.31;101394.31;4985038;28;20054;-76
2023/06/16 03:45:25;;;;;;;5.32;1.15;;;;;;;22.97;36.52;101399.66;4983352;28;20055;-76
2023/06/16 03:47:53;;;;;;;3.55;1.40;;;;;;;22.90;36.48;101403.28;4982801;28;20520;-76
2023/06/16 03:50:27;;;;;;;5.03;1.65;;;;;;;22.80;36.77;101403.38;4985368;28;20116;-76
2023/06/16 03:52:55;;;;;;;3.88;1.13;;;;;;;22.72;37.08;101404.34;4982028;28;20046;-75
2023/06/16 03:55:24;;;;;;;5.35;1.60;;;;;;;22.63;36.75;101407.97;4983018;28;20082;-76
2023/06/16 03:57:52;;;;;;;6.47;1.80;;;;;;;22.54;36.38;101415.94;4983256;28;20117;-76
2023/06/16 04:00:21;;;;;;;5.35;1.50;;;;;;;22.43;36.62;101428.38;4985839;28;20112;-76
2023/06/16 04:02:50;;;;;;;3.22;1.20;;;;;;;22.29;35.78;101426.75;4986295;28;20054;-75
2023/06/16 04:05:19;;;;;;;6.28;1.90;;;;;;;22.17;35.84;101429.41;4981155;28;20097;-75
2023/06/16 04:07:51;;;;;;;4.93;1.40;;;;;;;22.08;35.24;101432.13;4984760;28;20120;-76
2023/06/16 04:10:19;;;;;;;4.83;1.37;;;;;;;22.02;35.44;101437.47;4984649;28;20416;-76
2023/06/16 04:12:48;;;;;;;4.95;1.15;;;;;;;21.90;34.08;101439.28;4986134;28;20296;-76
2023/06/16 04:15:17;;;;;;;5.60;1.05;;;;;;;21.76;32.44;101441.13;4985950;28;20050;-75
2023/06/16 04:17:45;;;;;;;4.53;1.40;;;;;;;21.69;32.97;101452.56;4982029;28;20849;-74
2023/06/16 04:20:14;;;;;;;3.85;0.75;;;;;;;21.60;32.65;101456.16;4980266;28;20049;-74
2023/06/16 04:22:46;;;;;;;6.10;0.85;;;;;;;21.49;31.81;101458.81;4988677;28;20046;-74
2023/06/16 04:25:17;;;;;;;2.37;0.67;;;;;;;21.40;31.17;101457.97;4987231;28;20206;-75
2023/06/16 04:27:49;;;;;;;3.78;1.02;;;;;;;21.30;32.01;101463.25;4983022;28;20280;-76
2023/06/16 04:30:24;;;;;;;3.33;1.20;;;;;;;21.22;31.75;101465.03;4985784;28;20128;-75
2023/06/16 04:32:54;;;;;;;3.63;0.90;;;;;;;21.13;32.15;101467.69;4982281;28;20046;-74
2023/06/16 04:35:24;;;;;;;2.63;0.70;;;;;;;21.10;31.91;101475.59;4982492;28;20519;-74
2023/06/16 04:37:53;;;;;;;3.08;1.05;;;;;;;21.06;32.13;101484.38;4983922;28;20054;-75
2023/06/16 04:40:26;;;;;;;4.82;1.02;;;;;;;20.99;32.48;101482.66;4981966;28;20118;-75
2023/06/16 04:42:57;;;;;;;2.33;0.80;;;;;;;20.91;33.07;101488.81;4984279;28;20082;-75
2023/06/16 04:45:26;;;;;;;2.03;0.70;;;;;;;20.82;32.69;101485.28;4982402;28;20058;-75
2023/06/16 04:47:54;;;;;;;4.80;1.35;;;;;;;20.71;33.00;101488.81;4983166;28;20058;-76
2023/06/16 04:50:23;;;;;;;4.65;0.80;;;;;;;20.66;33.16;101493.22;4983696;28;20112;-75
2023/06/16 04:52:51;;;;;;;7.00;0.95;;;;;;;20.58;33.57;101497.59;4982770;28;20050;-76
2023/06/16 04:55:20;;;;;;;4.00;0.93;;;;;;;20.50;33.72;101494.03;4981742;28;20062;-76
2023/06/16 04:57:51;;;;;;;2.38;0.80;;;;;;;20.44;34.10;101507.19;4982877;28;20057;-75
2023/06/16 05:00:19;;;;;;;1.98;0.77;;;;;;;20.39;34.61;101503.69;4982592;28;20058;-77
2023/06/16 05:02:48;;;;;;;4.35;0.93;;;;;;;20.30;35.24;101508.06;4983710;28;20054;-74
2023/06/16 05:05:24;;;;;;;4.53;1.17;;;;;;;20.24;35.29;101508.03;4984291;28;20071;-76
2023/06/16 05:07:53;;;;;;;2.33;0.80;;;;;;;20.17;35.65;101511.53;4982032;28;20050;-75
2023/06/16 05:10:21;;;;;;;5.07;1.05;;;;;;;20.09;35.63;101518.53;4982329;28;20508;-74
2023/06/16 05:12:51;;;;;;;2.92;0.73;;;;;;;20.05;35.85;101527.28;4981875;28;20074;-75
2023/06/16 05:15:20;;;;;;;3.00;1.00;;;;;;;19.94;35.18;101519.34;4990271;28;20567;-73
2023/06/16 05:17:48;;;;;;;3.17;0.95;;;;;;;19.91;35.25;101534.25;4991169;28;20050;-74
2023/06/16 05:20:17;;;;;;;3.85;1.02;;;;;;;19.84;35.14;101534.22;4984699;28;20061;-74
2023/06/16 05:22:46;;;;;;;4.45;1.20;;;;;;;19.77;34.58;101532.44;4986173;28;20054;-74
2023/06/16 05:25:14;;;;;;;2.63;0.70;;;;;;;19.70;35.00;101541.16;4982105;28;20140;-74
2023/06/16 05:27:43;;;;;;;2.22;0.90;;;;;;;19.65;33.94;101537.59;4983364;28;20054;-73
2023/06/16 05:30:14;;;;;;;4.38;0.60;;;;;;;19.59;33.27;101540.19;4983176;28;20063;-75
2023/06/16 05:32:43;;;;;;;1.93;0.70;;;;;;;19.55;32.35;101543.66;4981459;28;20046;-74
2023/06/16 05:35:11;;;;;;;3.67;0.60;;;;;;;19.50;32.11;101548.91;4982274;28;20054;-75
2023/06/16 05:37:42;;;;;;;0.70;0.60;;;;;;;19.46;32.40;101558.50;4983023;28;20113;-75
2023/06/16 05:40:12;;;;;;;6.32;0.90;;;;;;;19.40;33.36;101558.47;4985371;28;20050;-74
2023/06/16 05:42:40;;;;;;;2.05;0.52;;;;;;;19.37;32.85;101558.44;4990660;28;20054;-75
2023/06/16 05:45:09;;;;;;;3.50;0.90;;;;;;;19.29;31.92;101560.16;4987312;28;20128;-76
2023/06/16 05:47:40;;;;;;;2.88;0.80;;;;;;;19.24;31.12;101573.25;4984171;28;20057;-73
2023/06/16 05:50:11;;;;;;;2.08;0.70;;;;;;;19.17;31.69;101566.19;4988313;28;20042;-74
2023/06/16 05:52:39;;;;;;;3.40;0.98;;;;;;;19.13;31.57;101576.66;4983426;28;20082;-75
2023/06/16 05:55:09;;;;;;;1.67;0.63;;;;;;;19.09;31.12;101591.50;4988436;28;20109;-74
2023/06/16 05:57:38;;;;;;;1.25;0.55;;;;;;;19.02;32.10;101573.94;4986298;28;20106;-75
2023/06/16 06:00:15;;;;;;;1.90;0.50;;;;;;;18.88;28.99;101579.09;4984902;28;20206;-74
2023/06/16 06:02:45;;;;;;;3.08;0.50;;;;;;;18.80;31.51;101578.13;4985132;28;20056;-75
2023/06/16 06:05:14;;;;;;;2.72;0.75;;;;;;;18.74;32.17;101580.69;4985707;28;20045;-75
2023/06/16 06:07:42;;;;;;;4.60;0.68;;;;;;;18.65;29.91;101583.22;4988788;28;20046;-75
2023/06/16 06:10:11;;;;;;;1.75;0.70;;;;;;;18.58;29.79;101585.78;4990621;28;20101;-75
2023/06/16 06:12:40;;;;;;;4.38;0.85;;;;;;;18.50;29.18;101597.91;4988449;28;20049;-75
2023/06/16 06:15:10;;;;;;;3.75;0.50;;;;;;;18.47;29.18;101597.00;4988265;28;20089;-75
2023/06/16 06:17:38;;;;;;;1.30;0.52;;;;;;;18.42;28.98;101596.97;4987778;28;20111;-75
2023/06/16 06:20:10;;;;;;;3.47;0.45;;;;;;;18.37;29.39;101598.63;4987972;28;20145;-76
2023/06/16 06:22:40;;;;;;;2.83;0.68;;;;;;;18.26;30.28;101600.28;4989895;28;20732;-76
2023/06/16 06:25:09;;;;;;;0.90;0.70;;;;;;;18.24;31.18;101596.78;4984224;28;20475;-75
2023/06/16 06:27:38;;;;;;;0.63;0.63;;;;;;;18.19;32.54;101597.59;4984888;28;20050;-76
2023/06/16 06:30:07;;;;;;;3.38;0.73;;;;;;;18.13;32.50;101586.16;4985468;28;20050;-74
2023/06/16 06:32:37;;;;;;;3.47;0.90;;;;;;;18.07;32.30;101586.94;4985316;28;20569;-75
2023/06/16 06:35:06;;;;;;;4.28;0.70;;;;;;;18.02;33.71;101587.78;4983602;28;20130;-75
2023/06/16 06:37:36;;;;;;;1.50;0.63;;;;;;;17.93;33.76;101591.16;4986695;28;20057;-73
2023/06/16 06:40:05;;;;;;;2.35;0.50;;;;;;;17.87;34.74;101596.31;4983548;28;20137;-74
2023/06/16 06:42:34;;;;;;;1.33;0.75;;;;;;;17.84;34.63;101596.25;4982605;28;20129;-74
2023/06/16 06:45:03;;;;;;;2.15;0.77;;;;;;;17.79;33.23;101597.03;4984639;28;20042;-74
2023/06/16 06:47:32;;;;;;;1.10;0.60;;;;;;;17.74;33.03;101592.63;4987782;28;20514;-75
2023/06/16 06:50:02;;;;;;;1.42;0.68;;;;;;;17.70;34.15;101598.66;4984236;28;20475;-75
2023/06/16 06:52:30;;;;;;;1.90;1.05;;;;;;;17.60;34.35;101597.66;4986337;28;20078;-76
2023/06/16 06:55:00;;;;;;;2.08;0.95;;;;;;;17.50;32.68;101593.13;4987753;28;20050;-75
2023/06/16 06:57:32;;;;;;;2.67;1.00;;;;;;;17.44;36.50;101591.34;4987695;28;20073;-75
2023/06/16 07:00:00;;;;;;;5.50;1.75;;;;;;;17.32;33.97;101581.56;4987347;28;20066;-74
2023/06/16 07:02:29;;;;;;;1.30;0.52;;;;;;;17.29;35.15;101573.66;4983292;28;20046;-75
2023/06/16 07:04:58;;;;;;;3.38;0.60;;;;;;;17.29;34.71;101573.66;4988636;28;20724;-75
2023/06/16 07:07:26;;;;;;;1.63;0.75;;;;;;;17.25;38.16;101555.28;4983919;28;20538;-75
2023/06/16 07:09:55;;;;;;;1.30;1.08;;;;;;;17.16;34.25;101550.81;4985061;28;20051;-74
2023/06/16 07:12:25;;;;;;;0.68;0.30;;;;;;;17.09;37.30;101554.19;4984728;28;20110;-74
2023/06/16 07:14:53;;;;;;;0.88;0.68;;;;;;;17.01;35.03;101553.19;4986574;28;20046;-73
2023/06/16 07:17:22;;;;;;;3.42;0.88;;;;;;;17.01;33.72;101555.81;4983695;28;20054;-74
2023/06/16 07:19:51;;;;;;;1.75;0.85;;;;;;;17.04;33.37;101563.69;4984879;28;20054;-74
2023/06/16 07:22:19;;;;;;;5.20;1.05;;;;;;;17.07;33.23;101566.38;4986056;28;20054;-76
2023/06/16 07:24:48;;;;;;;2.38;0.80;;;;;;;17.08;32.88;101566.38;4988081;28;20805;-74
2023/06/16 07:27:17;;;;;;;0.73;0.47;;;;;;;17.13;35.18;101577.81;4982229;28;20043;-74
2023/06/16 07:29:47;;;;;;;3.40;0.98;;;;;;;17.14;35.38;101579.56;4986090;28;20061;-76
2023/06/16 07:32:21;;;;;;;0.93;0.50;;;;;;;17.17;35.54;101576.09;4987648;28;20543;-76
2023/06/16 07:34:49;;;;;;;1.95;0.47;;;;;;;17.20;35.12;101580.50;4984768;28;20056;-75
2023/06/16 07:37:18;;;;;;;2.70;0.47;;;;;;;17.20;34.08;101580.50;4987875;28;20105;-76
2023/06/16 07:39:46;;;;;;;1.67;0.60;;;;;;;17.18;34.04;101575.25;4983690;28;20467;-75
2023/06/16 07:42:16;;;;;;;1.35;0.70;;;;;;;17.18;33.79;101575.25;4984401;28;20661;-75
2023/06/16 07:44:47;;;;;;;0.98;0.63;;;;;;;17.17;34.55;101571.75;4985810;28;20136;-75
2023/06/16 07:47:16;;;;;;;3.45;0.52;;;;;;;17.16;33.80;101580.47;4983786;28;20078;-76
2023/06/16 07:49:46;;;;;;;1.83;0.52;;;;;;;17.15;34.29;101577.81;4985621;28;20057;-75
2023/06/16 07:52:15;;;;;;;0.95;0.73;;;;;;;17.13;35.43;101582.13;4981651;28;20050;-74
2023/06/16 07:54:43;;;;;;;1.70;0.77;;;;;;;17.12;36.30;101577.78;4983862;28;20100;-75
2023/06/16 07:57:12;;;;;;;2.28;0.73;;;;;;;17.09;34.88;101577.72;4984733;28;20062;-75
2023/06/16 07:59:40;;;;;;;0.75;0.50;;;;;;;17.02;35.17;101578.47;4985353;28;20047;-75
2023/06/16 08:02:10;;;;;;;0.75;0.40;;;;;;;16.98;35.09;101577.56;4983379;28;20042;-75
2023/06/16 08:04:39;;;;;;;1.30;0.60;;;;;;;16.95;36.31;101573.16;4987536;28;20047;-75
2023/06/16 08:07:10;;;;;;;1.45;0.40;;;;;;;16.94;36.32;101568.75;4981770;28;20110;-75
2023/06/16 08:09:38;;;;;;;3.55;0.77;;;;;;;16.94;36.57;101576.59;4987243;28;20053;-75
2023/06/16 08:12:09;;;;;;;1.27;0.55;;;;;;;16.92;36.47;101566.97;4979825;28;20058;-75
2023/06/16 08:14:38;;;;;;;1.60;0.55;;;;;;;16.91;35.91;101566.09;4984828;28;20054;-75
2023/06/16 08:17:11;;;;;;;1.70;0.50;;;;;;;16.90;35.60;101561.72;4983754;28;20072;-75
2023/06/16 08:19:40;;;;;;;1.63;0.50;;;;;;;16.93;35.38;101560.91;4984945;28;20050;-76
2023/06/16 08:22:09;;;;;;;0.77;0.60;;;;;;;16.94;35.73;101555.69;4985578;28;20054;-75
2023/06/16 08:24:37;;;;;;;1.02;0.50;;;;;;;16.95;35.61;101559.22;4981647;28;20097;-75
2023/06/16 08:27:07;;;;;;;1.75;0.70;;;;;;;16.95;36.75;101557.47;4984926;28;20535;-74
2023/06/16 08:29:36;;;;;;;0.57;0.40;;;;;;;16.93;36.78;101553.06;4985724;28;20053;-75
2023/06/16 08:32:06;;;;;;;1.77;0.85;;;;;;;16.90;36.81;101547.78;4983526;28;20055;-75
2023/06/16 08:34:36;;;;;;;1.35;0.70;;;;;;;16.84;36.77;101545.97;4981752;28;20514;-75
2023/06/16 08:37:05;;;;;;;1.20;0.50;;;;;;;16.79;36.89;101545.00;4985024;28;20133;-75
2023/06/16 08:39:34;;;;;;;1.63;0.80;;;;;;;16.73;37.72;101556.19;4982129;28;20050;-74
2023/06/16 08:42:11;;;;;;;2.45;0.60;;;;;;;16.67;38.08;101553.47;4981525;28;20050;-74
2023/06/16 08:44:41;;;;;;;1.92;0.60;;;;;;;16.63;41.58;101549.06;4983976;28;20049;-74
2023/06/16 08:47:10;;;;;;;1.20;0.70;;;;;;;16.61;42.16;101552.50;4982474;28;20137;-74
2023/06/16 08:49:41;;;;;;;0.60;0.40;;;;;;;16.57;42.41;101548.94;4984956;28;20088;-74
2023/06/16 08:52:12;;;;;;;1.30;0.55;;;;;;;16.50;42.69;101550.56;4985374;28;20126;-74
2023/06/16 08:54:48;;;;;;;0.65;0.47;;;;;;;16.44;41.30;101550.44;4987364;28;20078;-76
2023/06/16 08:57:19;;;;;;;2.67;0.55;;;;;;;16.41;40.36;101547.78;4982460;28;20081;-75
2023/06/16 08:59:50;;;;;;;1.45;0.60;;;;;;;16.42;40.44;101549.53;4983147;28;20054;-74
2023/06/16 09:02:20;;;;;;;2.05;0.80;;;;;;;16.41;40.47;101547.78;4984608;28;20062;-74
2023/06/16 09:04:50;;;;;;;0.88;0.47;;;;;;;16.37;40.80;101545.09;4978385;28;20062;-75
2023/06/16 09:07:22;;;;;;;1.08;0.65;;;;;;;16.30;40.92;101544.09;4983716;28;20050;-76
2023/06/16 09:09:51;;;;;;;2.03;0.77;;;;;;;16.29;41.52;101542.34;4982571;28;20102;-74
2023/06/16 09:12:20;;;;;;;2.40;0.85;;;;;;;16.27;41.02;101549.28;4979718;28;20042;-74
2023/06/16 09:14:50;;;;;;;2.60;0.65;;;;;;;16.24;41.32;101544.88;4984300;28;20528;-76
2023/06/16 09:17:24;;;;;;;0.60;0.45;;;;;;;16.24;41.41;101549.19;4989367;28;20054;-74
2023/06/16 09:19:55;;;;;;;0.68;0.45;;;;;;;16.19;42.28;101550.84;4986289;28;20074;-74
2023/06/16 09:22:28;;;;;;;1.90;0.50;;;;;;;16.18;44.49;101551.72;4988710;28;20062;-74
2023/06/16 09:24:56;;;;;;;1.20;0.50;;;;;;;16.15;44.52;101557.75;4985958;28;20113;-76
2023/06/16 09:27:28;;;;;;;1.05;0.50;;;;;;;16.12;43.58;101561.16;4989080;28;20116;-75
2023/06/16 09:30:00;;;;;;;0.60;0.30;;;;;;;16.09;42.71;101566.34;4986502;28;20078;-75
2023/06/16 09:32:38;;;;;;;2.15;0.60;;;;;;;15.99;42.96;101564.41;4989495;28;20961;-75
2023/06/16 09:35:25;;;;;;;3.05;0.75;;;;;;;15.96;42.38;101561.72;4985563;28;20656;-75
2023/06/16 09:37:55;;;;;;;4.40;0.80;;;;;;;15.95;43.37;101566.94;4987962;28;20137;-75
2023/06/16 09:40:29;;;;;;;5.90;0.60;;;;;;;15.91;43.02;101571.19;4987006;28;20050;-75
2023/06/16 09:43:00;;;;;;;5.20;0.77;;;;;;;15.86;43.15;101572.81;4996124;28;20085;-74
2023/06/16 09:45:31;;;;;;;1.45;0.82;;;;;;;15.83;43.50;101572.78;4994362;28;20046;-74
2023/06/16 09:48:10;;;;;;;1.70;0.60;;;;;;;15.75;43.80;101569.09;5001657;28;20062;-75
2023/06/16 09:50:41;;;;;;;0.60;0.40;;;;;;;15.73;44.34;101568.19;5008189;28;20050;-75
2023/06/16 09:53:11;;;;;;;0.57;0.50;;;;;;;15.69;44.03;101565.50;5006200;28;20098;-75
2023/06/16 09:55:40;;;;;;;2.55;0.57;;;;;;;15.62;44.73;101561.00;4992596;28;20093;-75
2023/06/16 09:58:09;;;;;;;1.00;0.50;;;;;;;15.51;45.39;101554.66;4988044;28;20062;-74
2023/06/16 10:00:37;;;;;;;1.20;0.70;;;;;;;15.44;45.99;101555.38;4987323;28;20046;-75
2023/06/16 10:03:09;;;;;;;2.33;1.20;;;;;;;15.40;46.53;101556.16;4986750;28;20046;-75
2023/06/16 10:05:41;;;;;;;3.70;0.93;;;;;;;15.38;45.91;101553.50;4988413;28;20054;-74
2023/06/16 10:08:13;;;;;;;2.13;0.60;;;;;;;15.35;46.54;101553.44;4988637;28;20053;-75
2023/06/16 10:10:46;;;;;;;1.60;0.50;;;;;;;15.34;47.43;101561.22;4984287;28;20043;-75
2023/06/16 10:13:17;;;;;;;2.25;0.70;;;;;;;15.32;46.35;101560.28;4985833;28;20043;-74
2023/06/16 10:15:50;;;;;;;1.40;0.68;;;;;;;15.28;46.94;101552.41;4986405;28;20050;-73
2023/06/16 10:18:20;;;;;;;2.35;0.90;;;;;;;15.25;46.78;101547.09;4985999;28;20054;-74
2023/06/16 10:20:51;;;;;;;0.57;0.40;;;;;;;15.20;47.46;101553.06;4991933;28;20100;-75
2023/06/16 10:23:19;;;;;;;0.90;0.60;;;;;;;15.16;47.24;101556.44;4988868;28;20141;-75
2023/06/16 10:25:48;;;;;;;1.75;0.50;;;;;;;15.11;47.22;101558.06;4986710;28;20077;-75
2023/06/16 10:28:20;;;;;;;1.65;0.60;;;;;;;15.06;47.48;101560.56;4979511;28;20547;-73
2023/06/16 10:30:49;;;;;;;1.67;0.60;;;;;;;15.02;47.56;101559.59;4984689;28;20047;-75
2023/06/16 10:33:19;;;;;;;1.25;0.70;;;;;;;14.99;47.16;101569.09;4987870;28;20076;-74
2023/06/16 10:35:56;;;;;;;2.75;0.95;;;;;;;14.96;48.01;101569.03;4983624;28;20492;-74
2023/06/16 10:38:35;;;;;;;1.77;0.70;;;;;;;14.93;48.69;101563.72;4990586;28;20096;-74
2023/06/16 10:41:06;;;;;;;3.38;0.82;;;;;;;14.90;50.29;101561.94;4982818;28;20504;-75
2023/06/16 10:43:36;;;;;;;2.08;0.60;;;;;;;14.85;50.00;101556.59;4987029;28;20062;-74
2023/06/16 10:46:15;;;;;;;3.92;1.00;;;;;;;14.83;50.32;101553.06;4992049;28;20169;-75
2023/06/16 10:49:18;;;;;;;3.58;0.70;;;;;;;14.81;50.92;101559.97;4977067;28;20062;-75
2023/06/16 10:51:56;;;;;;;0.60;0.40;;;;;;;14.81;50.85;101553.88;4987015;28;20110;-75
2023/06/16 10:54:48;;;;;;;1.05;0.50;;;;;;;14.80;51.70;101547.78;4984823;28;20077;-74
2023/06/16 10:57:17;;;;;;;4.93;0.68;;;;;;;14.79;52.07;101555.56;4984807;28;20056;-74
2023/06/16 10:59:56;;;;;;;2.05;0.35;;;;;;;14.77;52.69;101563.31;4984606;28;20054;-76
2023/06/16 11:02:26;;;;;;;1.08;0.43;;;;;;;14.74;52.44;101562.38;4985650;28;20050;-75
2023/06/16 11:05:15;;;;;;;1.80;0.63;;;;;;;14.70;52.74;101564.03;4986312;28;20649;-74
2023/06/16 11:08:08;;;;;;;2.47;0.50;;;;;;;14.68;52.52;101570.91;4982866;28;20117;-75
2023/06/16 11:10:52;;;;;;;;;;;;;;;14.69;52.44;101571.81;4986065;28;20101;-75
2023/06/16 11:13:23;;;;;;;3.38;0.60;;;;;;;14.66;52.46;101572.63;4987467;28;19937;-73
2023/06/16 11:15:54;;;;;;;3.95;0.82;;;;;;;14.65;52.18;101570.84;4986102;28;20112;-73
2023/06/16 11:18:28;;;;;;;0.63;0.60;;;;;;;14.59;52.64;101561.16;4980370;28;20073;-73
2023/06/16 11:20:59;;;;;;;1.15;0.60;;;;;;;14.58;54.36;101571.53;4984539;28;20051;-73
2023/06/16 11:23:30;;;;;;;1.55;0.60;;;;;;;14.57;56.74;101570.66;4984181;28;20063;-74
2023/06/16 11:26:07;;;;;;;1.30;0.55;;;;;;;14.54;56.59;101564.44;4981126;28;20668;-73
2023/06/16 11:28:40;;;;;;;1.00;0.50;;;;;;;14.56;55.28;101562.78;4984991;28;20042;-74
2023/06/16 11:31:09;;;;;;;2.65;0.85;;;;;;;14.52;54.19;101553.97;4985784;28;20054;-74
2023/06/16 11:33:49;;;;;;;0.68;0.40;;;;;;;14.50;54.63;101559.97;4977415;28;20626;-75
2023/06/16 11:36:19;;;;;;;0.80;0.55;;;;;;;14.48;54.19;101554.75;4983759;28;20046;-75
2023/06/16 11:38:50;;;;;;;2.92;0.70;;;;;;;14.44;54.79;101558.13;4980878;28;20101;-74
2023/06/16 11:41:20;;;;;;;1.55;0.55;;;;;;;14.40;54.33;101557.13;4988506;28;20042;-74
2023/06/16 11:43:53;;;;;;;2.03;0.63;;;;;;;14.37;54.92;101559.66;4983531;28;20066;-74